GLWPR LFRV-LFRS
Flight info
| Callsign | GLWPR |
|---|---|
| Flight time | 0h 42m |
| Altitude | 2500 |
| Route | VFR |
| Aircraft | BDOG/L-SDLO/C |
Departure
| Time | 2026-04-28 21:30 |
|---|---|
| Airport | Vannes-Meucon Airport (LFRV) |
Arrival
| Time | 2026-04-28 22:13 |
|---|---|
| Airport | Nantes Atlantique Airport (LFRS) |
| Time | Latitude | Longitude | Altitude | Speed | Heading |
|---|---|---|---|---|---|
| 2026-04-28 21:28 | 47.72132 | -2.72619 | 435 ft | 0 kts | 311° |
| 2026-04-28 21:29 | 47.72118 | -2.72618 | 431 ft | 8 kts | 143° |
| 2026-04-28 21:29 | 47.72072 | -2.72548 | 435 ft | 21 kts | 135° |
| 2026-04-28 21:29 | 47.71956 | -2.72346 | 435 ft | 23 kts | 118° |
| 2026-04-28 21:29 | 47.72040 | -2.72176 | 425 ft | 40 kts | 37° |
| 2026-04-28 21:30 | 47.72369 | -2.71801 | 488 ft | 76 kts | 38° |
| 2026-04-28 21:30 | 47.72818 | -2.71235 | 688 ft | 86 kts | 41° |
| 2026-04-28 21:30 | 47.73395 | -2.70934 | 838 ft | 96 kts | 0° |
| 2026-04-28 21:30 | 47.73937 | -2.71586 | 1109 ft | 108 kts | 314° |
| 2026-04-28 21:31 | 47.74231 | -2.72602 | 1463 ft | 103 kts | 302° |
| 2026-04-28 21:31 | 47.74431 | -2.73802 | 1509 ft | 129 kts | 263° |
| 2026-04-28 21:31 | 47.73751 | -2.74720 | 1607 ft | 138 kts | 205° |
| 2026-04-28 21:31 | 47.72880 | -2.75359 | 1800 ft | 137 kts | 199° |
| 2026-04-28 21:32 | 47.72006 | -2.75865 | 2035 ft | 135 kts | 192° |
| 2026-04-28 21:32 | 47.71120 | -2.76251 | 2269 ft | 133 kts | 174° |
| 2026-04-28 21:32 | 47.70453 | -2.75559 | 2411 ft | 110 kts | 119° |
| 2026-04-28 21:32 | 47.69964 | -2.74735 | 2603 ft | 99 kts | 127° |
| 2026-04-28 21:33 | 47.69471 | -2.73989 | 2534 ft | 108 kts | 122° |
| 2026-04-28 21:33 | 47.69011 | -2.73081 | 2406 ft | 113 kts | 117° |
| 2026-04-28 21:33 | 47.68570 | -2.72150 | 2432 ft | 105 kts | 118° |
| 2026-04-28 21:33 | 47.68122 | -2.71335 | 2473 ft | 100 kts | 125° |
| 2026-04-28 21:34 | 47.67506 | -2.70841 | 2506 ft | 107 kts | 159° |
| 2026-04-28 21:34 | 47.66806 | -2.70579 | 2548 ft | 99 kts | 147° |
| 2026-04-28 21:34 | 47.66191 | -2.70185 | 2604 ft | 94 kts | 142° |
| 2026-04-28 21:34 | 47.65593 | -2.69745 | 2704 ft | 97 kts | 143° |
| 2026-04-28 21:35 | 47.64984 | -2.69272 | 2711 ft | 101 kts | 141° |
| 2026-04-28 21:35 | 47.64358 | -2.68773 | 2664 ft | 102 kts | 141° |
| 2026-04-28 21:35 | 47.63788 | -2.68185 | 2626 ft | 98 kts | 131° |
| 2026-04-28 21:35 | 47.63286 | -2.67542 | 2608 ft | 96 kts | 126° |
| 2026-04-28 21:36 | 47.62784 | -2.66867 | 2563 ft | 98 kts | 126° |
| 2026-04-28 21:36 | 47.62295 | -2.66162 | 2565 ft | 98 kts | 123° |
| 2026-04-28 21:36 | 47.61829 | -2.65422 | 2526 ft | 98 kts | 121° |
| 2026-04-28 21:36 | 47.61375 | -2.64668 | 2549 ft | 98 kts | 120° |
| 2026-04-28 21:37 | 47.60922 | -2.63909 | 2584 ft | 100 kts | 121° |
| 2026-04-28 21:37 | 47.60464 | -2.63128 | 2610 ft | 100 kts | 120° |
| 2026-04-28 21:37 | 47.60010 | -2.62359 | 2572 ft | 98 kts | 120° |
| 2026-04-28 21:37 | 47.59562 | -2.61608 | 2573 ft | 98 kts | 121° |
| 2026-04-28 21:38 | 47.59109 | -2.60854 | 2541 ft | 98 kts | 120° |
| 2026-04-28 21:38 | 47.58655 | -2.60085 | 2565 ft | 100 kts | 120° |
| 2026-04-28 21:38 | 47.58195 | -2.59299 | 2631 ft | 102 kts | 120° |
| 2026-04-28 21:38 | 47.57740 | -2.58499 | 2683 ft | 103 kts | 120° |
| 2026-04-28 21:39 | 47.57278 | -2.57704 | 2675 ft | 101 kts | 121° |
| 2026-04-28 21:39 | 47.56819 | -2.56912 | 2695 ft | 102 kts | 120° |
| 2026-04-28 21:39 | 47.56356 | -2.56114 | 2653 ft | 101 kts | 121° |
| 2026-04-28 21:39 | 47.55948 | -2.55283 | 2632 ft | 98 kts | 114° |
| 2026-04-28 21:40 | 47.55597 | -2.54426 | 2583 ft | 97 kts | 111° |
| 2026-04-28 21:40 | 47.55263 | -2.53560 | 2551 ft | 98 kts | 110° |
| 2026-04-28 21:40 | 47.54937 | -2.52664 | 2537 ft | 98 kts | 110° |
| 2026-04-28 21:40 | 47.54618 | -2.51772 | 2484 ft | 98 kts | 110° |
| 2026-04-28 21:41 | 47.54302 | -2.50882 | 2449 ft | 98 kts | 109° |
| 2026-04-28 21:41 | 47.53977 | -2.49974 | 2466 ft | 101 kts | 110° |
| 2026-04-28 21:41 | 47.53642 | -2.49045 | 2496 ft | 103 kts | 110° |
| 2026-04-28 21:41 | 47.53311 | -2.48121 | 2442 ft | 101 kts | 110° |
| 2026-04-28 21:42 | 47.52993 | -2.47214 | 2422 ft | 100 kts | 110° |
| 2026-04-28 21:42 | 47.52673 | -2.46295 | 2399 ft | 100 kts | 110° |
| 2026-04-28 21:42 | 47.52357 | -2.45380 | 2373 ft | 99 kts | 110° |
| 2026-04-28 21:42 | 47.52045 | -2.44478 | 2323 ft | 98 kts | 110° |
| 2026-04-28 21:43 | 47.51724 | -2.43576 | 2286 ft | 100 kts | 110° |
| 2026-04-28 21:43 | 47.51403 | -2.42671 | 2224 ft | 98 kts | 110° |
| 2026-04-28 21:43 | 47.51082 | -2.41782 | 2165 ft | 97 kts | 110° |
| 2026-04-28 21:43 | 47.50757 | -2.40898 | 2124 ft | 98 kts | 110° |
| 2026-04-28 21:44 | 47.50427 | -2.40019 | 2074 ft | 98 kts | 110° |
| 2026-04-28 21:44 | 47.50098 | -2.39141 | 2067 ft | 100 kts | 110° |
| 2026-04-28 21:44 | 47.49761 | -2.38229 | 2037 ft | 101 kts | 110° |
| 2026-04-28 21:44 | 47.49422 | -2.37317 | 1988 ft | 101 kts | 110° |
| 2026-04-28 21:45 | 47.49080 | -2.36392 | 2005 ft | 103 kts | 110° |
| 2026-04-28 21:45 | 47.48735 | -2.35471 | 1957 ft | 101 kts | 110° |
| 2026-04-28 21:45 | 47.48400 | -2.34589 | 1983 ft | 96 kts | 110° |
| 2026-04-28 21:45 | 47.48071 | -2.33733 | 2026 ft | 95 kts | 110° |
| 2026-04-28 21:46 | 47.47737 | -2.32897 | 2043 ft | 93 kts | 110° |
| 2026-04-28 21:46 | 47.47406 | -2.32093 | 2061 ft | 92 kts | 110° |
| 2026-04-28 21:46 | 47.47073 | -2.31284 | 2096 ft | 92 kts | 110° |
| 2026-04-28 21:46 | 47.46745 | -2.30480 | 2118 ft | 91 kts | 110° |
| 2026-04-28 21:47 | 47.46423 | -2.29688 | 2131 ft | 89 kts | 110° |
| 2026-04-28 21:47 | 47.46108 | -2.28908 | 2162 ft | 88 kts | 110° |
| 2026-04-28 21:47 | 47.45796 | -2.28129 | 2203 ft | 89 kts | 110° |
| 2026-04-28 21:47 | 47.45483 | -2.27349 | 2223 ft | 90 kts | 110° |
| 2026-04-28 21:48 | 47.45157 | -2.26554 | 2243 ft | 89 kts | 110° |
| 2026-04-28 21:48 | 47.44843 | -2.25783 | 2268 ft | 88 kts | 110° |
| 2026-04-28 21:48 | 47.44524 | -2.24980 | 2384 ft | 92 kts | 110° |
| 2026-04-28 21:48 | 47.44208 | -2.24153 | 2459 ft | 92 kts | 110° |
| 2026-04-28 21:49 | 47.43895 | -2.23331 | 2455 ft | 92 kts | 110° |
| 2026-04-28 21:49 | 47.43581 | -2.22510 | 2456 ft | 91 kts | 110° |
| 2026-04-28 21:49 | 47.43269 | -2.21689 | 2455 ft | 91 kts | 110° |
| 2026-04-28 21:49 | 47.42958 | -2.20873 | 2453 ft | 91 kts | 110° |
| 2026-04-28 21:50 | 47.42650 | -2.20058 | 2454 ft | 91 kts | 110° |
| 2026-04-28 21:50 | 47.42341 | -2.19235 | 2482 ft | 91 kts | 111° |
| 2026-04-28 21:50 | 47.42036 | -2.18400 | 2515 ft | 92 kts | 110° |
| 2026-04-28 21:50 | 47.41742 | -2.17582 | 2509 ft | 91 kts | 110° |
| 2026-04-28 21:51 | 47.41448 | -2.16761 | 2524 ft | 91 kts | 110° |
| 2026-04-28 21:51 | 47.41149 | -2.15937 | 2527 ft | 91 kts | 110° |
| 2026-04-28 21:51 | 47.40848 | -2.15099 | 2541 ft | 92 kts | 110° |
| 2026-04-28 21:51 | 47.40546 | -2.14262 | 2546 ft | 92 kts | 110° |
| 2026-04-28 21:52 | 47.40243 | -2.13425 | 2558 ft | 92 kts | 111° |
| 2026-04-28 21:52 | 47.39937 | -2.12590 | 2569 ft | 93 kts | 110° |
| 2026-04-28 21:52 | 47.39632 | -2.11756 | 2559 ft | 92 kts | 110° |
| 2026-04-28 21:52 | 47.39331 | -2.10923 | 2577 ft | 92 kts | 110° |
| 2026-04-28 21:53 | 47.39057 | -2.10070 | 2569 ft | 91 kts | 101° |
| 2026-04-28 21:53 | 47.38947 | -2.09160 | 2604 ft | 91 kts | 93° |
| 2026-04-28 21:53 | 47.38884 | -2.08220 | 2669 ft | 92 kts | 91° |
| 2026-04-28 21:53 | 47.38714 | -2.07324 | 2653 ft | 96 kts | 120° |
| 2026-04-28 21:54 | 47.38244 | -2.06612 | 2694 ft | 97 kts | 125° |
| 2026-04-28 21:54 | 47.37757 | -2.05918 | 2720 ft | 97 kts | 126° |
| 2026-04-28 21:54 | 47.37266 | -2.05234 | 2747 ft | 97 kts | 128° |
| 2026-04-28 21:54 | 47.36859 | -2.04475 | 2782 ft | 94 kts | 115° |
| 2026-04-28 21:55 | 47.36529 | -2.03644 | 2813 ft | 93 kts | 112° |
| 2026-04-28 21:55 | 47.36227 | -2.02805 | 2827 ft | 93 kts | 111° |
| 2026-04-28 21:55 | 47.35930 | -2.01943 | 2850 ft | 95 kts | 111° |
| 2026-04-28 21:55 | 47.35637 | -2.01081 | 2818 ft | 94 kts | 110° |
| 2026-04-28 21:56 | 47.35472 | -2.00154 | 2865 ft | 94 kts | 95° |
| 2026-04-28 21:56 | 47.35417 | -1.99194 | 2875 ft | 94 kts | 92° |
| 2026-04-28 21:56 | 47.35389 | -1.98238 | 2869 ft | 94 kts | 90° |
| 2026-04-28 21:56 | 47.35373 | -1.97268 | 2903 ft | 95 kts | 90° |
| 2026-04-28 21:57 | 47.35363 | -1.96295 | 2899 ft | 95 kts | 90° |
| 2026-04-28 21:57 | 47.35356 | -1.95323 | 2873 ft | 95 kts | 90° |
| 2026-04-28 21:57 | 47.35348 | -1.94358 | 2831 ft | 93 kts | 90° |
| 2026-04-28 21:57 | 47.35343 | -1.93392 | 2824 ft | 95 kts | 90° |
| 2026-04-28 21:58 | 47.35223 | -1.92455 | 2771 ft | 98 kts | 116° |
| 2026-04-28 21:58 | 47.34854 | -1.91606 | 2767 ft | 98 kts | 113° |
| 2026-04-28 21:58 | 47.34539 | -1.90732 | 2741 ft | 98 kts | 111° |
| 2026-04-28 21:58 | 47.34228 | -1.89837 | 2748 ft | 98 kts | 111° |
| 2026-04-28 21:59 | 47.33925 | -1.88955 | 2720 ft | 96 kts | 110° |
| 2026-04-28 21:59 | 47.33624 | -1.88073 | 2704 ft | 96 kts | 110° |
| 2026-04-28 21:59 | 47.33322 | -1.87173 | 2695 ft | 99 kts | 110° |
| 2026-04-28 22:00 | 47.32705 | -1.85298 | 2661 ft | 102 kts | 110° |
| 2026-04-28 22:00 | 47.32400 | -1.84366 | 2660 ft | 100 kts | 110° |
| 2026-04-28 22:00 | 47.32098 | -1.83440 | 2660 ft | 100 kts | 110° |
| 2026-04-28 22:00 | 47.31799 | -1.82526 | 2695 ft | 101 kts | 110° |
| 2026-04-28 22:01 | 47.31496 | -1.81599 | 2712 ft | 100 kts | 110° |
| 2026-04-28 22:01 | 47.31203 | -1.80665 | 2743 ft | 100 kts | 110° |
| 2026-04-28 22:01 | 47.30911 | -1.79744 | 2739 ft | 98 kts | 111° |
| 2026-04-28 22:01 | 47.30626 | -1.78833 | 2722 ft | 97 kts | 110° |
| 2026-04-28 22:02 | 47.30341 | -1.77923 | 2747 ft | 98 kts | 110° |
| 2026-04-28 22:02 | 47.30051 | -1.77013 | 2725 ft | 98 kts | 110° |
| 2026-04-28 22:02 | 47.29759 | -1.76101 | 2703 ft | 98 kts | 110° |
| 2026-04-28 22:02 | 47.29471 | -1.75199 | 2677 ft | 97 kts | 110° |
| 2026-04-28 22:03 | 47.29185 | -1.74298 | 2677 ft | 97 kts | 110° |
| 2026-04-28 22:03 | 47.28898 | -1.73403 | 2643 ft | 96 kts | 110° |
| 2026-04-28 22:03 | 47.28610 | -1.72519 | 2642 ft | 96 kts | 111° |
| 2026-04-28 22:03 | 47.28311 | -1.71635 | 2625 ft | 96 kts | 110° |
| 2026-04-28 22:04 | 47.28013 | -1.70756 | 2624 ft | 97 kts | 110° |
| 2026-04-28 22:04 | 47.27719 | -1.69872 | 2587 ft | 96 kts | 110° |
| 2026-04-28 22:04 | 47.27429 | -1.68995 | 2584 ft | 96 kts | 110° |
| 2026-04-28 22:04 | 47.27138 | -1.68110 | 2550 ft | 96 kts | 110° |
| 2026-04-28 22:05 | 47.26768 | -1.67312 | 2577 ft | 98 kts | 137° |
| 2026-04-28 22:05 | 47.26038 | -1.67202 | 2569 ft | 117 kts | 178° |
| 2026-04-28 22:05 | 47.25204 | -1.67530 | 2278 ft | 126 kts | 181° |
| 2026-04-28 22:05 | 47.24359 | -1.67812 | 2151 ft | 121 kts | 184° |
| 2026-04-28 22:06 | 47.23554 | -1.67971 | 1969 ft | 110 kts | 169° |
| 2026-04-28 22:06 | 47.22831 | -1.67844 | 1764 ft | 100 kts | 156° |
| 2026-04-28 22:06 | 47.22180 | -1.67574 | 1612 ft | 94 kts | 143° |
| 2026-04-28 22:06 | 47.21606 | -1.67107 | 1382 ft | 92 kts | 135° |
| 2026-04-28 22:07 | 47.21080 | -1.66602 | 1149 ft | 93 kts | 134° |
| 2026-04-28 22:07 | 47.20480 | -1.66082 | 889 ft | 106 kts | 143° |
| 2026-04-28 22:07 | 47.19906 | -1.65521 | 839 ft | 96 kts | 133° |
| 2026-04-28 22:07 | 47.19367 | -1.64896 | 813 ft | 105 kts | 139° |
| 2026-04-28 22:08 | 47.18781 | -1.64212 | 846 ft | 106 kts | 136° |
| 2026-04-28 22:08 | 47.18170 | -1.63709 | 829 ft | 103 kts | 184° |
| 2026-04-28 22:08 | 47.17609 | -1.64332 | 871 ft | 100 kts | 227° |
| 2026-04-28 22:08 | 47.17144 | -1.65088 | 802 ft | 108 kts | 231° |
| 2026-04-28 22:09 | 47.16602 | -1.65882 | 791 ft | 107 kts | 221° |
| 2026-04-28 22:09 | 47.16072 | -1.66575 | 843 ft | 97 kts | 222° |
| 2026-04-28 22:09 | 47.15574 | -1.67176 | 862 ft | 94 kts | 218° |
| 2026-04-28 22:09 | 47.15031 | -1.67791 | 858 ft | 104 kts | 216° |
| 2026-04-28 22:10 | 47.14413 | -1.68240 | 974 ft | 96 kts | 174° |
| 2026-04-28 22:10 | 47.13855 | -1.67781 | 1077 ft | 96 kts | 134° |
| 2026-04-28 22:10 | 47.13373 | -1.67119 | 1151 ft | 95 kts | 122° |
| 2026-04-28 22:10 | 47.12898 | -1.66457 | 1223 ft | 100 kts | 130° |
| 2026-04-28 22:11 | 47.12363 | -1.65794 | 1218 ft | 99 kts | 126° |
| 2026-04-28 22:11 | 47.11905 | -1.65049 | 1203 ft | 99 kts | 118° |
| 2026-04-28 22:11 | 47.11699 | -1.64170 | 1153 ft | 85 kts | 72° |
| 2026-04-28 22:11 | 47.12082 | -1.63541 | 883 ft | 89 kts | 29° |
| 2026-04-28 22:12 | 47.12663 | -1.63153 | 641 ft | 95 kts | 25° |
| 2026-04-28 22:12 | 47.13218 | -1.62718 | 481 ft | 90 kts | 31° |
| 2026-04-28 22:12 | 47.13706 | -1.62306 | 268 ft | 68 kts | 27° |
| 2026-04-28 22:12 | 47.14091 | -1.62007 | 126 ft | 57 kts | 27° |
| 2026-04-28 22:13 | 47.14375 | -1.61788 | 88 ft | 35 kts | 29° |
| 2026-04-28 22:13 | 47.14603 | -1.61614 | 95 ft | 41 kts | 27° |
| 2026-04-28 22:13 | 47.14789 | -1.61450 | 95 ft | 19 kts | 54° |
| 2026-04-28 22:13 | 47.14823 | -1.61281 | 93 ft | 12 kts | 75° |
| 2026-04-28 22:14 | 47.14825 | -1.61272 | 93 ft | 0 kts | 73° |
| 2026-04-28 22:16 | 47.14829 | -1.61253 | 93 ft | 8 kts | 74° |
| 2026-04-28 22:16 | 47.14851 | -1.61175 | 93 ft | 8 kts | 50° |
| 2026-04-28 22:16 | 47.14896 | -1.61126 | 93 ft | 12 kts | 31° |
| 2026-04-28 22:16 | 47.14999 | -1.61052 | 94 ft | 17 kts | 28° |
| 2026-04-28 22:17 | 47.15114 | -1.60961 | 95 ft | 22 kts | 28° |
| 2026-04-28 22:17 | 47.15235 | -1.60869 | 95 ft | 18 kts | 24° |
| 2026-04-28 22:17 | 47.15326 | -1.60799 | 98 ft | 12 kts | 27° |
| 2026-04-28 22:17 | 47.15402 | -1.60740 | 97 ft | 13 kts | 26° |
| 2026-04-28 22:18 | 47.15482 | -1.60679 | 97 ft | 13 kts | 27° |
| 2026-04-28 22:18 | 47.15556 | -1.60622 | 98 ft | 12 kts | 28° |
| 2026-04-28 22:18 | 47.15633 | -1.60563 | 96 ft | 14 kts | 28° |
| 2026-04-28 22:18 | 47.15716 | -1.60491 | 94 ft | 12 kts | 59° |
| 2026-04-28 22:19 | 47.15731 | -1.60400 | 95 ft | 5 kts | 94° |
| 2026-04-28 22:19 | 47.15714 | -1.60368 | 95 ft | 4 kts | 141° |
| 2026-04-28 22:19 | 47.15686 | -1.60336 | 95 ft | 6 kts | 146° |
| 2026-04-28 22:19 | 47.15658 | -1.60287 | 95 ft | 7 kts | 126° |
| 2026-04-28 22:20 | 47.15628 | -1.60227 | 96 ft | 7 kts | 128° |
| 2026-04-28 22:20 | 47.15600 | -1.60166 | 96 ft | 7 kts | 126° |
| 2026-04-28 22:20 | 47.15597 | -1.60136 | 97 ft | 7 kts | 53° |
| 2026-04-28 22:20 | 47.15638 | -1.60102 | 97 ft | 0 kts | 30° |